createdAt,value
2023-05-10T00:01:25.434Z,82.25
2023-05-10T00:03:53.489Z,82.50
2023-05-10T00:06:21.617Z,82.30
2023-05-10T00:08:49.598Z,82.46
2023-05-10T00:11:17.678Z,81.94
2023-05-10T00:13:45.595Z,82.38
2023-05-10T00:16:14.270Z,82.49
2023-05-10T00:18:42.704Z,82.55
2023-05-10T00:21:10.788Z,81.99
2023-05-10T00:23:38.812Z,81.93
2023-05-10T00:26:07.226Z,81.38
2023-05-10T00:28:35.399Z,81.44
2023-05-10T00:31:04.612Z,81.73
2023-05-10T00:33:32.566Z,81.76
2023-05-10T00:36:00.569Z,82.00
2023-05-10T00:38:28.591Z,81.15
2023-05-10T00:40:56.587Z,81.43
2023-05-10T00:43:28.540Z,81.64
2023-05-10T00:45:57.081Z,81.76
2023-05-10T00:48:25.508Z,81.65
2023-05-10T00:50:53.470Z,81.51
2023-05-10T00:53:22.064Z,81.00
2023-05-10T00:55:50.032Z,80.97
2023-05-10T00:58:18.287Z,80.76
2023-05-10T01:00:47.618Z,80.52
2023-05-10T01:03:15.787Z,80.46
2023-05-10T01:05:43.871Z,80.48
2023-05-10T01:08:12.104Z,80.57
2023-05-10T01:10:40.201Z,80.56
2023-05-10T01:13:08.682Z,80.72
2023-05-10T01:15:38.034Z,80.51
2023-05-10T01:18:06.719Z,80.16
2023-05-10T01:20:44.593Z,80.78
2023-05-10T01:23:28.001Z,80.80
2023-05-10T01:26:08.068Z,80.12
2023-05-10T01:28:41.763Z,80.67
2023-05-10T01:31:40.808Z,81.30
2023-05-10T01:34:21.910Z,80.57
2023-05-10T01:36:59.851Z,80.52
2023-05-10T01:39:46.756Z,80.91
2023-05-10T01:42:21.161Z,80.44
2023-05-10T01:44:59.136Z,80.59
2023-05-10T01:47:36.717Z,81.19
2023-05-10T01:50:11.392Z,81.24
2023-05-10T01:52:44.834Z,81.03
2023-05-10T01:55:17.215Z,81.01
2023-05-10T01:57:49.193Z,81.04
2023-05-10T02:00:19.406Z,81.09
2023-05-10T02:02:49.961Z,81.22
2023-05-10T02:05:19.477Z,81.13
2023-05-10T02:07:48.984Z,81.06
2023-05-10T02:10:18.481Z,80.72
2023-05-10T02:12:50.555Z,80.69
2023-05-10T02:15:23.485Z,80.83
2023-05-10T02:17:53.686Z,81.07
2023-05-10T02:20:24.497Z,81.55
2023-05-10T02:22:55.648Z,81.46
2023-05-10T02:25:25.720Z,81.30
2023-05-10T02:27:58.045Z,81.87
2023-05-10T02:30:27.281Z,81.51
2023-05-10T02:32:57.286Z,81.69
2023-05-10T02:35:27.376Z,81.20
2023-05-10T02:37:55.873Z,81.52
2023-05-10T02:40:26.862Z,81.19
2023-05-10T02:42:59.830Z,81.03
2023-05-10T02:45:31.526Z,80.45
2023-05-10T02:48:00.702Z,80.76
2023-05-10T02:50:31.209Z,80.32
2023-05-10T02:53:04.991Z,80.59
2023-05-10T02:55:37.850Z,80.62
2023-05-10T02:58:06.642Z,81.09
2023-05-10T03:00:35.118Z,81.39
2023-05-10T03:03:03.212Z,81.18
2023-05-10T03:05:31.466Z,81.34
2023-05-10T03:08:05.186Z,81.52
2023-05-10T03:10:35.093Z,81.03
2023-05-10T03:13:14.040Z,80.75
2023-05-10T03:16:06.372Z,81.15
2023-05-10T03:18:51.980Z,81.19
2023-05-10T03:21:22.885Z,80.47
2023-05-10T03:24:13.027Z,79.90
2023-05-10T03:26:45.046Z,80.15
2023-05-10T03:29:16.859Z,80.40
2023-05-10T03:31:45.399Z,80.11
2023-05-10T03:34:13.539Z,80.64
2023-05-10T03:36:41.483Z,80.90
2023-05-10T03:39:10.056Z,80.48
2023-05-10T03:41:38.892Z,80.26
2023-05-10T03:44:07.158Z,80.47
2023-05-10T03:46:35.281Z,80.36
2023-05-10T03:49:04.447Z,80.70
2023-05-10T03:51:33.008Z,80.54
2023-05-10T03:54:00.887Z,80.77
2023-05-10T03:56:29.362Z,80.86
2023-05-10T03:58:57.396Z,80.73
2023-05-10T04:01:25.453Z,80.33
2023-05-10T04:03:53.569Z,79.84
2023-05-10T04:06:21.806Z,79.87
2023-05-10T04:08:49.771Z,79.82
2023-05-10T04:11:17.903Z,80.16
2023-05-10T04:13:45.887Z,80.11
2023-05-10T04:16:13.976Z,80.22
2023-05-10T04:18:42.038Z,80.19
2023-05-10T04:21:14.591Z,80.78
2023-05-10T04:23:42.722Z,81.09
2023-05-10T04:26:10.690Z,81.07
2023-05-10T04:28:39.001Z,81.13
2023-05-10T04:31:08.430Z,80.99
2023-05-10T04:33:37.601Z,80.91
2023-05-10T04:36:06.224Z,80.49
2023-05-10T04:38:34.256Z,80.49
2023-05-10T04:41:09.208Z,80.91
2023-05-10T04:43:37.965Z,80.73
2023-05-10T04:46:06.959Z,80.94
2023-05-10T04:48:35.312Z,80.60
2023-05-10T04:51:05.151Z,80.60
2023-05-10T04:53:33.757Z,80.64
2023-05-10T04:56:02.021Z,80.93
2023-05-10T04:58:29.997Z,80.50
2023-05-10T05:00:58.186Z,80.82
2023-05-10T05:03:26.537Z,80.83
2023-05-10T05:05:54.717Z,81.12
2023-05-10T05:08:22.789Z,80.88
2023-05-10T05:10:51.481Z,80.66
2023-05-10T05:13:20.062Z,80.70
2023-05-10T05:15:48.543Z,80.84
2023-05-10T05:18:16.644Z,80.75
2023-05-10T05:20:44.636Z,80.83
2023-05-10T05:23:12.958Z,81.54
2023-05-10T05:25:40.902Z,81.69
2023-05-10T05:28:09.072Z,81.18
2023-05-10T05:30:37.018Z,80.71
2023-05-10T05:33:05.397Z,80.90
2023-05-10T05:35:33.522Z,80.77
2023-05-10T05:38:02.206Z,81.02
2023-05-10T05:40:30.178Z,80.79
2023-05-10T05:42:58.144Z,80.85
2023-05-10T05:45:26.241Z,80.81
2023-05-10T05:47:54.434Z,80.42
2023-05-10T05:50:22.574Z,79.99
2023-05-10T05:52:50.839Z,79.85
2023-05-10T05:55:19.023Z,80.32
2023-05-10T05:57:47.272Z,79.19
2023-05-10T06:00:15.735Z,79.70
2023-05-10T06:02:44.000Z,80.06
2023-05-10T06:05:12.227Z,80.04
2023-05-10T06:07:41.934Z,80.26
2023-05-10T06:10:11.034Z,80.03
2023-05-10T06:12:38.930Z,79.60
2023-05-10T06:15:07.774Z,79.54
2023-05-10T06:17:35.876Z,80.16
2023-05-10T06:20:04.576Z,79.86
2023-05-10T06:22:32.616Z,80.09
2023-05-10T06:25:01.007Z,80.17
2023-05-10T06:27:29.077Z,80.49
2023-05-10T06:30:09.272Z,80.19
2023-05-10T06:32:41.006Z,79.99
2023-05-10T06:35:09.580Z,79.88
2023-05-10T06:37:37.532Z,79.32
2023-05-10T06:40:07.244Z,78.98
2023-05-10T06:42:35.212Z,79.66
2023-05-10T06:45:04.177Z,80.25
2023-05-10T06:47:32.916Z,80.31
2023-05-10T06:50:01.111Z,80.46
2023-05-10T06:52:29.684Z,80.51
2023-05-10T06:54:58.761Z,80.76
2023-05-10T06:57:31.705Z,80.55
2023-05-10T07:00:00.451Z,80.51
2023-05-10T07:02:29.255Z,80.27
2023-05-10T07:04:59.487Z,80.07
2023-05-10T07:07:30.057Z,80.07
2023-05-10T07:09:58.875Z,80.33
2023-05-10T07:12:27.179Z,80.63
2023-05-10T07:14:55.398Z,81.30
2023-05-10T07:17:23.478Z,81.14
2023-05-10T07:19:51.749Z,81.41
2023-05-10T07:22:19.828Z,81.18
2023-05-10T07:24:47.901Z,80.94
2023-05-10T07:27:16.065Z,81.45
2023-05-10T07:29:44.011Z,82.10
2023-05-10T07:32:12.158Z,82.20
2023-05-10T07:34:40.280Z,82.33
2023-05-10T07:37:08.580Z,82.96
2023-05-10T07:39:36.633Z,83.05
2023-05-10T07:42:04.592Z,83.18
2023-05-10T07:44:32.618Z,83.23
2023-05-10T07:47:00.574Z,83.62
2023-05-10T07:49:28.526Z,84.14
2023-05-10T07:51:56.777Z,84.10
2023-05-10T07:54:25.062Z,84.02
2023-05-10T07:56:53.080Z,84.07
2023-05-10T07:59:21.294Z,83.16
2023-05-10T08:01:49.170Z,83.48
2023-05-10T08:04:17.307Z,83.30
2023-05-10T08:06:45.537Z,83.28
2023-05-10T08:09:13.751Z,82.84
2023-05-10T08:11:41.795Z,83.17
2023-05-10T08:14:09.833Z,83.06
2023-05-10T08:16:37.814Z,83.16
2023-05-10T08:19:06.387Z,82.91
2023-05-10T08:21:34.534Z,82.78
2023-05-10T08:24:02.964Z,82.84
2023-05-10T08:26:31.930Z,82.54
2023-05-10T08:29:00.312Z,82.20
2023-05-10T08:31:28.319Z,81.91
2023-05-10T08:33:56.520Z,81.97
2023-05-10T08:36:25.462Z,81.81
2023-05-10T08:38:54.173Z,81.61
2023-05-10T08:41:24.928Z,81.52
2023-05-10T08:43:54.312Z,81.29
2023-05-10T08:46:24.566Z,80.68
2023-05-10T08:48:53.309Z,80.52
2023-05-10T08:51:27.863Z,79.88
2023-05-10T08:53:56.396Z,79.24
2023-05-10T08:56:25.186Z,78.50
2023-05-10T08:58:53.584Z,78.58
2023-05-10T09:01:22.818Z,78.38
2023-05-10T09:03:52.143Z,76.91
2023-05-10T09:06:20.958Z,76.93
2023-05-10T09:08:49.254Z,77.10
2023-05-10T09:11:18.487Z,77.08
2023-05-10T09:13:49.156Z,77.05
2023-05-10T09:16:21.880Z,76.76
2023-05-10T09:18:50.955Z,76.75
2023-05-10T09:21:21.040Z,76.62
2023-05-10T09:23:51.382Z,76.84
2023-05-10T09:26:24.235Z,76.14
2023-05-10T09:28:54.834Z,76.42
2023-05-10T09:31:24.869Z,76.44
2023-05-10T09:33:54.906Z,76.98
2023-05-10T09:36:22.856Z,76.34
2023-05-10T09:38:52.974Z,76.22
2023-05-10T09:41:24.046Z,76.43
2023-05-10T09:43:56.838Z,75.51
2023-05-10T09:46:24.867Z,75.97
2023-05-10T09:48:52.980Z,74.80
2023-05-10T09:51:25.861Z,75.77
2023-05-10T09:54:17.792Z,75.42
2023-05-10T09:56:46.078Z,75.39
2023-05-10T09:59:14.352Z,75.68
2023-05-10T10:01:42.661Z,74.94
2023-05-10T10:04:12.027Z,74.28
2023-05-10T10:06:40.912Z,72.91
2023-05-10T10:09:10.476Z,72.22
2023-05-10T10:11:39.859Z,72.71
2023-05-10T10:14:07.904Z,73.08
2023-05-10T10:16:36.113Z,72.50
2023-05-10T10:19:04.409Z,71.69
2023-05-10T10:21:32.730Z,71.96
2023-05-10T10:24:00.710Z,72.09
2023-05-10T10:26:29.090Z,72.30
2023-05-10T10:29:22.233Z,72.18
2023-05-10T10:32:25.658Z,71.91
2023-05-10T10:34:56.190Z,71.08
2023-05-10T10:37:25.261Z,69.71
2023-05-10T10:39:53.429Z,69.82
2023-05-10T10:42:48.348Z,70.00
2023-05-10T10:45:16.697Z,69.16
2023-05-10T10:47:46.326Z,69.10
2023-05-10T10:50:14.476Z,68.53
2023-05-10T10:52:44.359Z,68.67
2023-05-10T10:55:20.037Z,68.53
2023-05-10T10:57:54.623Z,67.85
2023-05-10T11:00:25.887Z,68.32
2023-05-10T11:02:55.381Z,68.04
2023-05-10T11:05:37.279Z,67.60
2023-05-10T11:08:32.382Z,66.51
2023-05-10T11:11:00.644Z,66.31
2023-05-10T11:13:36.362Z,67.49
2023-05-10T11:16:25.591Z,67.00
2023-05-10T11:19:03.326Z,66.82
2023-05-10T11:21:33.715Z,67.56
2023-05-10T11:24:06.901Z,66.72
2023-05-10T11:26:36.512Z,66.61
2023-05-10T11:29:06.113Z,66.88
2023-05-10T11:31:34.337Z,66.39
2023-05-10T11:34:06.106Z,66.97
2023-05-10T11:36:35.908Z,66.86
2023-05-10T11:39:05.631Z,66.50
2023-05-10T11:41:34.353Z,65.52
2023-05-10T11:44:03.087Z,65.37
2023-05-10T11:46:31.242Z,65.78
2023-05-10T11:49:05.419Z,64.63
2023-05-10T11:51:38.045Z,64.20
2023-05-10T11:54:11.634Z,63.81
2023-05-10T11:56:41.104Z,63.78
2023-05-10T11:59:09.417Z,64.18
2023-05-10T12:01:38.121Z,63.84
2023-05-10T12:04:06.954Z,64.52
2023-05-10T12:06:41.650Z,65.06
2023-05-10T12:09:09.949Z,65.23
2023-05-10T12:11:44.271Z,65.06
2023-05-10T12:14:12.914Z,65.52
2023-05-10T12:16:41.413Z,64.79
2023-05-10T12:19:09.859Z,63.86
2023-05-10T12:21:40.011Z,64.45
2023-05-10T12:24:09.017Z,64.21
2023-05-10T12:26:37.369Z,63.84
2023-05-10T12:29:21.426Z,64.42
2023-05-10T12:31:59.384Z,63.83
2023-05-10T12:34:37.408Z,63.14
2023-05-10T12:37:05.656Z,63.21
2023-05-10T12:39:45.392Z,62.90
2023-05-10T12:42:13.358Z,63.90
2023-05-10T12:44:41.592Z,64.21
2023-05-10T12:47:09.544Z,63.80
2023-05-10T12:49:37.506Z,64.33
2023-05-10T12:52:05.912Z,63.38
2023-05-10T12:54:35.841Z,63.32
2023-05-10T12:57:03.896Z,61.56
2023-05-10T12:59:31.865Z,61.49
2023-05-10T13:02:00.039Z,60.88
2023-05-10T13:04:28.154Z,60.92
2023-05-10T13:07:00.123Z,61.54
2023-05-10T13:09:30.561Z,61.85
2023-05-10T13:11:58.956Z,60.72
2023-05-10T13:14:27.492Z,59.07
2023-05-10T13:16:55.475Z,58.38
2023-05-10T13:19:23.511Z,58.85
2023-05-10T13:21:51.452Z,59.29
2023-05-10T13:24:19.378Z,59.65
2023-05-10T13:26:47.357Z,60.54
2023-05-10T13:29:16.919Z,61.42
2023-05-10T13:31:45.029Z,61.90
2023-05-10T13:34:13.056Z,61.90
2023-05-10T13:36:41.156Z,61.56
2023-05-10T13:39:09.726Z,62.04
2023-05-10T13:41:38.209Z,62.06
2023-05-10T13:44:06.792Z,62.28
2023-05-10T13:46:34.765Z,62.00
2023-05-10T13:49:03.133Z,62.46
2023-05-10T13:51:32.742Z,61.73
2023-05-10T13:54:00.709Z,62.07
2023-05-10T13:56:28.736Z,61.57
2023-05-10T13:58:59.223Z,62.48
2023-05-10T14:01:27.254Z,62.32
2023-05-10T14:03:55.375Z,62.51
2023-05-10T14:06:23.321Z,63.16
2023-05-10T14:08:51.302Z,62.98
2023-05-10T14:11:19.252Z,62.78
2023-05-10T14:13:47.250Z,61.59
2023-05-10T14:16:15.992Z,61.12
2023-05-10T14:18:44.203Z,60.61
2023-05-10T14:21:12.400Z,61.10
2023-05-10T14:23:40.545Z,61.03
2023-05-10T14:26:08.906Z,60.97
2023-05-10T14:28:36.919Z,60.93
2023-05-10T14:31:06.582Z,60.83
2023-05-10T14:33:34.622Z,60.56
2023-05-10T14:36:04.506Z,60.70
2023-05-10T14:38:32.640Z,61.93
2023-05-10T14:41:00.582Z,63.16
2023-05-10T14:43:29.130Z,63.33
2023-05-10T14:45:57.411Z,63.15
2023-05-10T14:48:25.498Z,63.83
2023-05-10T14:50:53.741Z,63.78
2023-05-10T14:53:22.002Z,63.36
2023-05-10T14:55:50.032Z,63.74
2023-05-10T14:58:18.240Z,63.69
2023-05-10T15:00:47.134Z,62.36
2023-05-10T15:03:15.764Z,62.61
2023-05-10T15:05:44.502Z,62.07
2023-05-10T15:08:13.622Z,61.99
2023-05-10T15:10:41.773Z,62.35
2023-05-10T15:13:09.706Z,62.62
2023-05-10T15:15:37.738Z,63.03
2023-05-10T15:18:06.776Z,62.71
2023-05-10T15:20:34.986Z,62.89
2023-05-10T15:23:02.950Z,62.74
2023-05-10T15:25:30.922Z,63.34
2023-05-10T15:27:58.995Z,63.59
2023-05-10T15:30:27.026Z,62.77
2023-05-10T15:32:55.285Z,62.35
2023-05-10T15:35:23.592Z,63.48
2023-05-10T15:37:51.564Z,63.17
2023-05-10T15:40:19.765Z,63.17
2023-05-10T15:42:47.721Z,64.41
2023-05-10T15:45:16.495Z,64.92
2023-05-10T15:47:45.844Z,64.77
2023-05-10T15:50:13.977Z,64.23
2023-05-10T15:52:42.474Z,64.97
2023-05-10T15:55:13.742Z,65.36
2023-05-10T15:57:43.953Z,64.80
2023-05-10T16:00:13.249Z,65.64
2023-05-10T16:02:42.035Z,65.87
2023-05-10T16:05:11.125Z,65.57
2023-05-10T16:07:40.442Z,65.02
2023-05-10T16:10:10.706Z,64.30
2023-05-10T16:12:39.677Z,64.64
2023-05-10T16:15:09.670Z,64.77
2023-05-10T16:17:40.137Z,63.61
2023-05-10T16:20:11.178Z,63.53
2023-05-10T16:22:41.912Z,63.03
2023-05-10T16:25:13.714Z,62.14
2023-05-10T16:27:43.845Z,62.95
2023-05-10T16:30:12.784Z,63.08
2023-05-10T16:32:40.929Z,63.61
2023-05-10T16:35:11.903Z,64.12
2023-05-10T16:37:41.453Z,63.48
2023-05-10T16:40:10.558Z,63.34
2023-05-10T16:42:39.444Z,63.55
2023-05-10T16:45:09.401Z,64.12
2023-05-10T16:47:38.834Z,64.20
2023-05-10T16:50:08.476Z,64.13
2023-05-10T16:52:37.369Z,64.16
2023-05-10T16:55:06.150Z,64.88
2023-05-10T16:57:35.474Z,64.87
2023-05-10T17:00:05.162Z,64.61
2023-05-10T17:02:33.293Z,64.82
2023-05-10T17:05:01.752Z,65.17
2023-05-10T17:07:30.599Z,65.02
2023-05-10T17:09:59.650Z,65.13
2023-05-10T17:12:27.719Z,64.86
2023-05-10T17:14:55.671Z,65.25
2023-05-10T17:17:23.758Z,65.65
2023-05-10T17:19:52.003Z,65.72
2023-05-10T17:22:20.205Z,66.01
2023-05-10T17:24:48.234Z,66.04
2023-05-10T17:27:16.522Z,66.32
2023-05-10T17:29:44.514Z,66.50
2023-05-10T17:32:12.550Z,66.09
2023-05-10T17:34:40.930Z,66.22
2023-05-10T17:37:09.652Z,66.17
2023-05-10T17:39:39.339Z,66.86
2023-05-10T17:42:08.531Z,66.25
2023-05-10T17:44:36.845Z,66.47
2023-05-10T17:47:04.786Z,66.78
2023-05-10T17:49:32.737Z,66.93
2023-05-10T17:52:00.734Z,66.72
2023-05-10T17:54:28.894Z,66.94
2023-05-10T17:56:58.229Z,67.09
2023-05-10T17:59:26.223Z,67.37
2023-05-10T18:01:54.504Z,66.77
2023-05-10T18:04:22.480Z,66.78
2023-05-10T18:06:50.581Z,67.66
2023-05-10T18:09:21.009Z,68.06
2023-05-10T18:11:48.970Z,68.15
2023-05-10T18:14:28.238Z,68.16
2023-05-10T18:17:04.607Z,68.64
2023-05-10T18:19:32.669Z,68.74
2023-05-10T18:22:00.688Z,69.37
2023-05-10T18:24:38.435Z,69.82
2023-05-10T18:27:09.011Z,70.62
2023-05-10T18:29:37.740Z,71.00
2023-05-10T18:32:06.551Z,71.30
2023-05-10T18:34:34.561Z,72.01
2023-05-10T18:37:07.544Z,72.00
2023-05-10T18:39:38.734Z,71.98
2023-05-10T18:42:07.730Z,72.33
2023-05-10T18:44:35.691Z,72.60
2023-05-10T18:47:03.695Z,72.55
2023-05-10T18:49:32.329Z,73.22
2023-05-10T18:52:01.110Z,72.98
2023-05-10T18:54:29.909Z,73.15
2023-05-10T18:56:58.979Z,73.88
2023-05-10T18:59:28.121Z,73.93
2023-05-10T19:01:57.509Z,74.14
2023-05-10T19:04:26.124Z,74.55
2023-05-10T19:06:55.971Z,74.48
2023-05-10T19:09:27.244Z,74.60
2023-05-10T19:11:55.609Z,74.65
2023-05-10T19:14:25.463Z,74.90
2023-05-10T19:16:54.933Z,74.45
2023-05-10T19:19:24.871Z,74.09
2023-05-10T19:21:53.852Z,74.17
2023-05-10T19:24:25.194Z,73.91
2023-05-10T19:26:55.538Z,74.00
2023-05-10T19:29:24.264Z,74.24
2023-05-10T19:31:52.926Z,74.17
2023-05-10T19:34:21.809Z,74.78
2023-05-10T19:36:50.880Z,75.11
2023-05-10T19:39:19.885Z,75.57
2023-05-10T19:41:50.403Z,75.56
2023-05-10T19:44:19.101Z,75.41
2023-05-10T19:46:47.689Z,75.42
2023-05-10T19:49:16.870Z,75.21
2023-05-10T19:51:46.151Z,75.33
2023-05-10T19:54:14.648Z,75.16
2023-05-10T19:56:42.949Z,75.10
2023-05-10T19:59:12.252Z,74.70
2023-05-10T20:01:40.903Z,74.51
2023-05-10T20:04:11.356Z,74.57
2023-05-10T20:06:39.823Z,75.16
2023-05-10T20:09:09.938Z,75.26
2023-05-10T20:11:39.854Z,75.48
2023-05-10T20:14:11.001Z,76.03
2023-05-10T20:16:42.181Z,76.49
2023-05-10T20:19:12.481Z,76.60
2023-05-10T20:21:40.710Z,76.51
2023-05-10T20:24:09.329Z,76.34
2023-05-10T20:26:37.505Z,76.45
2023-05-10T20:29:05.583Z,76.20
2023-05-10T20:31:33.776Z,76.63
2023-05-10T20:34:02.076Z,77.34
2023-05-10T20:36:31.273Z,77.23
2023-05-10T20:38:59.512Z,77.21
2023-05-10T20:41:27.552Z,76.98
2023-05-10T20:43:55.648Z,76.49
2023-05-10T20:46:27.192Z,77.15
2023-05-10T20:48:55.366Z,76.97
2023-05-10T20:51:23.548Z,77.10
2023-05-10T20:53:51.714Z,77.38
2023-05-10T20:56:19.993Z,77.45
2023-05-10T20:58:48.168Z,76.59
2023-05-10T21:01:16.228Z,76.73
2023-05-10T21:03:44.620Z,77.08
2023-05-10T21:06:12.684Z,77.65
2023-05-10T21:08:40.650Z,77.62
2023-05-10T21:11:08.727Z,78.21
2023-05-10T21:13:36.918Z,78.54
2023-05-10T21:16:05.237Z,77.90
2023-05-10T21:18:33.296Z,78.50
2023-05-10T21:21:01.427Z,78.54
2023-05-10T21:23:29.394Z,78.90
2023-05-10T21:25:57.468Z,79.28
2023-05-10T21:28:25.647Z,79.03
2023-05-10T21:30:53.819Z,79.08
2023-05-10T21:33:21.990Z,79.28
2023-05-10T21:35:50.648Z,79.20
2023-05-10T21:38:20.005Z,79.07
2023-05-10T21:40:47.885Z,78.63
2023-05-10T21:43:15.917Z,78.86
2023-05-10T21:45:44.009Z,78.81
2023-05-10T21:48:13.782Z,78.90
2023-05-10T21:50:44.021Z,78.89
2023-05-10T21:53:11.962Z,78.78
2023-05-10T21:55:40.004Z,78.68
2023-05-10T21:58:07.967Z,77.82
2023-05-10T22:00:35.940Z,77.00
2023-05-10T22:03:04.060Z,77.65
2023-05-10T22:05:32.350Z,77.46
2023-05-10T22:08:00.419Z,77.59
2023-05-10T22:10:28.500Z,77.76
2023-05-10T22:12:57.385Z,77.95
2023-05-10T22:15:26.173Z,78.13
2023-05-10T22:17:54.187Z,77.79
2023-05-10T22:20:22.315Z,78.16
2023-05-10T22:22:50.351Z,78.17
2023-05-10T22:25:18.568Z,77.95
2023-05-10T22:27:46.665Z,77.83
2023-05-10T22:30:15.060Z,77.41
2023-05-10T22:32:43.220Z,77.14
2023-05-10T22:35:11.766Z,77.49
2023-05-10T22:37:39.840Z,77.23
2023-05-10T22:40:08.646Z,77.19
2023-05-10T22:42:36.698Z,77.31
2023-05-10T22:45:05.383Z,77.82
2023-05-10T22:47:33.727Z,77.65
2023-05-10T22:50:03.768Z,77.79
2023-05-10T22:52:31.997Z,77.69
2023-05-10T22:55:00.069Z,77.22
2023-05-10T22:57:28.397Z,77.00
2023-05-10T22:59:56.433Z,76.61
2023-05-10T23:02:24.693Z,76.61
2023-05-10T23:04:52.842Z,76.78
2023-05-10T23:07:21.210Z,77.18
2023-05-10T23:09:49.275Z,77.37
2023-05-10T23:12:17.553Z,77.13
2023-05-10T23:14:47.807Z,77.06
2023-05-10T23:17:15.949Z,77.18
2023-05-10T23:19:44.223Z,77.24
2023-05-10T23:22:12.513Z,77.41
2023-05-10T23:24:40.692Z,77.34
2023-05-10T23:27:09.344Z,77.58
2023-05-10T23:29:37.823Z,77.20
2023-05-10T23:32:06.006Z,76.91
2023-05-10T23:34:34.391Z,77.57
2023-05-10T23:37:02.788Z,78.04
2023-05-10T23:39:30.869Z,78.04
2023-05-10T23:41:58.924Z,77.92
2023-05-10T23:44:27.096Z,78.16
2023-05-10T23:46:55.171Z,78.56
2023-05-10T23:49:23.241Z,78.94
2023-05-10T23:51:51.428Z,78.83
2023-05-10T23:54:19.587Z,78.63
2023-05-10T23:56:47.761Z,78.25
2023-05-10T23:59:15.970Z,78.62
